CheckWX is a tool to help pilots better visualize weather data.  It is not intended as a substitute for an official pre-flight weather briefing.

03:13:15 UTC

KDNN METAR
Dalton Municipal Airport
Dalton, Georgia, USA
Current

18 mins ago

KDNN 260255Z AUTO 00000KT 10SM CLR 22/20 A3015 RMK AO2
Observed
May-26 @ 02:55 UTC
Visibility
10 SM
Flight Rules
VFR
Cloud Levels
  • Clear skies
Temperature
22°C / 72°F
Dewpoint
20°C / 68°F
Humidity
88%
Altimeter
30.15" Hg
Pressure
1021.02 hPa
Previous

38 mins ago

KDNN 260235Z AUTO 00000KT 10SM CLR 22/19 A3015 RMK AO2
Observed
May-26 @ 02:35 UTC
Visibility
10 SM
Flight Rules
VFR
Cloud Levels
  • Clear skies
Temperature
22°C / 72°F
Dewpoint
19°C / 66°F
Humidity
83%
Altimeter
30.15" Hg
Pressure
1021.02 hPa
Previous

58 mins ago

KDNN 260215Z AUTO 00000KT 10SM CLR 23/20 A3015 RMK AO2
Observed
May-26 @ 02:15 UTC
Visibility
10 SM
Flight Rules
VFR
Cloud Levels
  • Clear skies
Temperature
23°C / 73°F
Dewpoint
20°C / 68°F
Humidity
83%
Altimeter
30.15" Hg
Pressure
1021.02 hPa